Time;durP1;ratioP1;P1;durP2;ratioP2;P2;SDS_P1;SDS_P2;PMS_P1;PMS_P2;Temp;Humidity;BMP_temperature;BMP_pressure;BME280_temperature;BME280_humidity;BME280_pressure;Samples;Min_cycle;Max_cycle;Signal;HPM_P1;HPM_P2
2022/07/24 00:01:27;;;;;;;13.93;12.53;;;;;;;26.58;50.93;97767.47;5113529;28;20191;-73
2022/07/24 00:03:52;;;;;;;13.60;12.30;;;;;;;26.53;51.03;97771.69;5122150;27;20189;-72
2022/07/24 00:06:18;;;;;;;14.43;13.10;;;;;;;26.50;50.97;97772.19;5113646;28;20747;-73
2022/07/24 00:08:43;;;;;;;16.53;12.10;;;;;;;26.50;51.36;97772.19;5095076;28;20184;-73
2022/07/24 00:11:08;;;;;;;19.30;12.13;;;;;;;26.46;51.25;97771.03;5094931;28;20221;-73
2022/07/24 00:13:34;;;;;;;13.07;11.87;;;;;;;26.45;51.31;97766.72;5113383;28;20283;-73
2022/07/24 00:15:59;;;;;;;13.93;11.53;;;;;;;26.45;51.17;97769.41;5121814;27;20279;-72
2022/07/24 00:18:25;;;;;;;12.63;11.37;;;;;;;26.40;51.11;97766.63;5111924;28;20181;-73
2022/07/24 00:20:50;;;;;;;14.53;12.13;;;;;;;26.34;51.28;97767.56;5112906;28;20197;-73
2022/07/24 00:23:16;;;;;;;13.33;12.13;;;;;;;26.32;51.50;97758.97;5112915;28;20189;-72
2022/07/24 00:25:41;;;;;;;12.57;11.30;;;;;;;26.32;51.69;97762.44;5112796;28;20288;-72
2022/07/24 00:28:07;;;;;;;12.33;11.13;;;;;;;26.31;51.34;97757.34;5112233;28;20181;-73
2022/07/24 00:30:33;;;;;;;12.83;11.43;;;;;;;26.34;51.24;97754.97;5114511;27;20180;-74
2022/07/24 00:32:58;;;;;;;12.27;11.17;;;;;;;26.34;51.44;97763.03;5094359;28;20193;-72
2022/07/24 00:35:24;;;;;;;12.60;11.40;;;;;;;26.34;50.72;97757.66;5112577;28;20393;-73
2022/07/24 00:37:49;;;;;;;11.93;10.93;;;;;;;26.31;51.36;97751.97;5112547;28;20271;-73
2022/07/24 00:40:15;;;;;;;12.03;11.00;;;;;;;26.32;51.31;97757.06;5112750;28;20208;-73
2022/07/24 00:42:42;;;;;;;12.80;11.20;;;;;;;26.34;51.12;97751.47;5094553;28;20177;-72
2022/07/24 00:45:08;;;;;;;13.17;11.87;;;;;;;26.32;50.95;97749.03;5111688;28;20465;-74
2022/07/24 00:47:34;;;;;;;11.93;10.83;;;;;;;26.30;50.73;97753.00;5098534;28;20418;-74
2022/07/24 00:50:00;;;;;;;12.40;11.30;;;;;;;26.22;51.38;97746.97;5112055;28;20429;-75
2022/07/24 00:52:26;;;;;;;13.50;11.60;;;;;;;26.20;51.44;97751.78;5112383;28;20185;-74
2022/07/24 00:54:52;;;;;;;12.80;11.50;;;;;;;26.18;51.83;97753.88;5112376;28;20423;-74
2022/07/24 00:57:17;;;;;;;11.80;10.50;;;;;;;26.12;51.90;97760.19;5111797;28;20997;-72
2022/07/24 00:59:43;;;;;;;12.60;11.27;;;;;;;26.03;52.12;97750.88;5112364;28;20232;-73
2022/07/24 01:02:09;;;;;;;13.63;11.70;;;;;;;25.97;52.19;97758.00;5111907;28;20667;-72
2022/07/24 01:04:34;;;;;;;13.03;11.63;;;;;;;25.97;52.19;97749.97;5095170;27;20205;-72
2022/07/24 01:07:00;;;;;;;12.03;10.90;;;;;;;25.98;52.46;97753.44;5112429;28;20218;-73
2022/07/24 01:09:25;;;;;;;12.93;11.73;;;;;;;25.98;52.05;97750.75;5111951;28;20177;-73
2022/07/24 01:11:51;;;;;;;12.40;11.20;;;;;;;25.97;51.90;97751.81;5094145;28;20177;-74
2022/07/24 01:14:17;;;;;;;13.37;12.17;;;;;;;25.88;52.36;97757.56;5114045;27;20241;-74
2022/07/24 01:16:42;;;;;;;13.80;11.50;;;;;;;25.87;52.19;97753.25;5093357;28;20458;-75
2022/07/24 01:19:08;;;;;;;12.03;10.83;;;;;;;25.89;52.13;97751.16;5111245;28;20205;-74
2022/07/24 01:21:33;;;;;;;13.63;12.23;;;;;;;25.92;52.08;97755.22;5106479;28;20206;-73
2022/07/24 01:23:59;;;;;;;13.63;11.20;;;;;;;25.92;52.10;97745.31;5074298;28;20254;-72
2022/07/24 01:26:24;;;;;;;13.33;11.60;;;;;;;25.91;52.36;97743.69;5111813;28;20201;-73
2022/07/24 01:28:50;;;;;;;13.57;11.33;;;;;;;25.89;52.24;97747.66;5112206;28;20640;-73
2022/07/24 01:31:15;;;;;;;12.77;11.67;;;;;;;25.89;52.48;97748.47;5111527;28;20275;-74
2022/07/24 01:33:41;;;;;;;12.43;11.20;;;;;;;25.89;52.14;97751.16;5106762;28;20322;-74
2022/07/24 01:36:07;;;;;;;13.90;11.67;;;;;;;25.87;52.39;97750.56;5111178;28;20205;-73
2022/07/24 01:38:32;;;;;;;13.13;11.80;;;;;;;25.76;52.15;97752.25;5111517;28;20188;-71
2022/07/24 01:40:59;;;;;;;12.17;10.80;;;;;;;25.78;52.23;97757.38;5111679;28;20703;-74
2022/07/24 01:43:24;;;;;;;11.20;10.20;;;;;;;25.83;52.09;97757.50;5110588;28;20473;-73
2022/07/24 01:45:50;;;;;;;16.10;10.70;;;;;;;25.82;51.92;97752.34;5113380;27;20573;-73
2022/07/24 01:48:16;;;;;;;11.33;10.20;;;;;;;25.77;52.10;97747.69;5105441;28;20238;-73
2022/07/24 01:50:42;;;;;;;11.37;10.17;;;;;;;25.75;52.18;97747.94;5111683;28;20173;-73
2022/07/24 01:53:07;;;;;;;11.30;10.17;;;;;;;25.75;52.08;97747.09;5107574;28;20434;-72
2022/07/24 01:55:33;;;;;;;10.10;9.23;;;;;;;25.76;52.24;97756.78;5111290;28;20197;-72
2022/07/24 01:57:58;;;;;;;11.13;10.07;;;;;;;25.75;51.67;97752.47;5111370;28;20268;-71
2022/07/24 02:00:24;;;;;;;11.60;10.50;;;;;;;25.69;51.58;97754.25;5110878;28;20204;-72
2022/07/24 02:02:49;;;;;;;12.17;10.73;;;;;;;25.64;52.02;97753.31;5111698;28;20185;-71
2022/07/24 02:05:15;;;;;;;11.40;10.20;;;;;;;25.61;52.25;97747.38;5110875;28;20215;-72
2022/07/24 02:07:42;;;;;;;11.63;10.47;;;;;;;25.60;51.99;97748.41;5110972;28;20636;-74
2022/07/24 02:10:09;;;;;;;11.73;10.17;;;;;;;25.55;51.92;97751.00;5110951;28;20189;-73
2022/07/24 02:12:35;;;;;;;11.50;10.47;;;;;;;25.53;52.14;97745.06;5111202;27;20929;-73
2022/07/24 02:15:00;;;;;;;11.97;10.77;;;;;;;25.51;52.41;97746.34;5110990;28;20453;-73
2022/07/24 02:17:26;;;;;;;12.03;10.93;;;;;;;25.43;52.28;97739.47;5091930;28;20536;-73
2022/07/24 02:19:51;;;;;;;11.47;10.40;;;;;;;25.38;52.46;97750.06;5105271;28;20672;-73
2022/07/24 02:22:17;;;;;;;12.60;10.30;;;;;;;25.35;52.46;97740.63;5105555;28;20181;-73
2022/07/24 02:24:42;;;;;;;12.03;10.83;;;;;;;25.34;52.89;97738.16;5110980;28;20189;-73
2022/07/24 02:27:08;;;;;;;12.50;10.20;;;;;;;25.31;52.90;97750.19;5110657;28;20180;-73
2022/07/24 02:29:33;;;;;;;10.80;9.53;;;;;;;25.29;52.51;97747.75;5092487;28;20169;-73
2022/07/24 02:31:59;;;;;;;11.03;9.90;;;;;;;25.30;52.81;97752.06;5111252;28;20742;-71
2022/07/24 02:34:25;;;;;;;11.23;10.03;;;;;;;25.32;52.46;97751.00;5092267;28;20177;-72
2022/07/24 02:36:50;;;;;;;11.40;10.27;;;;;;;25.39;52.80;97740.97;5109898;28;20212;-72
2022/07/24 02:39:16;;;;;;;10.63;9.57;;;;;;;25.41;52.49;97749.63;5111789;28;20543;-71
2022/07/24 02:41:41;;;;;;;10.73;9.73;;;;;;;25.42;52.68;97748.59;5098308;28;20268;-73
2022/07/24 02:44:07;;;;;;;10.67;9.77;;;;;;;25.43;52.57;97747.53;5094887;28;20192;-72
2022/07/24 02:46:32;;;;;;;11.10;9.70;;;;;;;25.48;52.59;97747.63;5099148;28;20208;-73
2022/07/24 02:48:58;;;;;;;12.67;9.57;;;;;;;25.48;52.05;97753.00;5082984;28;20598;-72
2022/07/24 02:51:23;;;;;;;13.47;10.13;;;;;;;25.47;52.05;97742.50;5088196;28;20271;-72
2022/07/24 02:53:48;;;;;;;9.63;8.83;;;;;;;25.42;51.77;97746.69;5092697;28;20185;-72
2022/07/24 02:56:14;;;;;;;10.70;9.00;;;;;;;25.36;51.79;97762.88;5113421;28;20242;-71
2022/07/24 02:58:40;;;;;;;12.10;8.90;;;;;;;25.25;51.94;97753.81;5114752;28;20177;-72
2022/07/24 03:01:06;;;;;;;9.83;8.83;;;;;;;25.18;51.79;97751.25;5120392;27;20204;-72
2022/07/24 03:03:31;;;;;;;10.57;9.40;;;;;;;25.17;52.11;97754.16;5101234;28;20181;-73
2022/07/24 03:05:57;;;;;;;14.40;9.03;;;;;;;25.13;51.30;97749.28;5114623;28;20454;-72
2022/07/24 03:08:22;;;;;;;12.00;9.23;;;;;;;25.13;51.79;97751.97;5114571;28;20181;-72
2022/07/24 03:10:48;;;;;;;9.90;9.00;;;;;;;25.18;51.36;97763.81;5114964;28;20177;-72
2022/07/24 03:13:14;;;;;;;9.63;8.83;;;;;;;25.14;51.25;97752.75;5114592;28;20705;-72
2022/07/24 03:15:39;;;;;;;10.03;8.93;;;;;;;25.19;51.48;97755.56;5115169;27;20442;-73
2022/07/24 03:18:05;;;;;;;10.20;9.20;;;;;;;25.28;51.05;97756.00;5124410;27;20212;-72
2022/07/24 03:20:30;;;;;;;9.80;8.90;;;;;;;25.32;50.98;97742.97;5109221;27;20205;-72
2022/07/24 03:22:56;;;;;;;10.17;9.17;;;;;;;25.32;50.74;97753.69;5114386;28;20184;-73
2022/07/24 03:25:22;;;;;;;13.10;8.70;;;;;;;25.27;51.25;97757.88;5114375;28;20205;-72
2022/07/24 03:27:49;;;;;;;10.23;8.77;;;;;;;25.21;51.29;97752.63;5108205;28;20958;-73
2022/07/24 03:30:16;;;;;;;11.10;10.10;;;;;;;25.09;51.41;97756.16;5104914;28;20606;-72
2022/07/24 03:32:41;;;;;;;11.60;9.30;;;;;;;25.04;51.83;97756.00;5097411;28;20471;-72
2022/07/24 03:35:07;;;;;;;12.40;10.10;;;;;;;25.04;51.90;97755.22;5106721;27;20545;-73
2022/07/24 03:37:32;;;;;;;9.37;8.53;;;;;;;25.03;52.00;97756.25;5091051;27;20575;-72
2022/07/24 03:39:58;;;;;;;11.53;10.33;;;;;;;24.95;51.74;97755.53;5100733;28;20209;-73
2022/07/24 03:42:24;;;;;;;12.83;9.57;;;;;;;24.89;51.88;97755.69;5108590;28;20185;-72
2022/07/24 03:44:49;;;;;;;10.93;9.30;;;;;;;24.84;52.00;97759.84;5113261;27;20189;-72
2022/07/24 03:47:14;;;;;;;10.57;9.60;;;;;;;24.86;52.04;97756.94;5107360;27;20185;-72
2022/07/24 03:49:40;;;;;;;9.90;9.00;;;;;;;24.89;51.93;97764.53;5097536;28;20557;-72
2022/07/24 03:52:06;;;;;;;10.97;9.73;;;;;;;24.89;52.10;97758.34;5099046;28;20192;-72
2022/07/24 03:54:31;;;;;;;9.80;8.90;;;;;;;24.90;51.78;97755.44;5085207;28;20192;-72
2022/07/24 03:56:56;;;;;;;10.33;9.37;;;;;;;24.83;52.20;97760.06;5115384;27;20283;-71
2022/07/24 03:59:22;;;;;;;10.27;9.27;;;;;;;24.78;51.97;97762.66;5115194;27;20204;-72
2022/07/24 04:01:47;;;;;;;10.63;9.70;;;;;;;24.73;52.10;97765.19;5113150;27;20185;-72
2022/07/24 04:04:13;;;;;;;11.40;10.30;;;;;;;24.69;52.12;97764.84;5113031;28;20184;-72
2022/07/24 04:06:40;;;;;;;10.67;9.67;;;;;;;24.64;52.14;97764.66;5107680;28;20229;-73
2022/07/24 04:09:06;;;;;;;10.53;9.43;;;;;;;24.63;52.56;97765.75;5111705;28;20185;-74
2022/07/24 04:11:32;;;;;;;10.80;9.30;;;;;;;24.61;52.78;97775.88;5095633;28;20484;-73
2022/07/24 04:13:57;;;;;;;11.63;10.20;;;;;;;24.54;52.66;97767.94;5113136;28;20603;-72
2022/07/24 04:16:22;;;;;;;11.23;10.13;;;;;;;24.51;52.94;97773.72;5111543;28;20204;-72
2022/07/24 04:18:48;;;;;;;11.00;10.00;;;;;;;24.50;53.02;97782.81;5112162;28;20238;-71
2022/07/24 04:21:14;;;;;;;9.33;8.47;;;;;;;24.51;53.26;97779.91;5105340;28;20177;-72
2022/07/24 04:23:39;;;;;;;11.17;10.07;;;;;;;24.49;53.04;97782.00;5108431;28;20181;-75
2022/07/24 04:26:05;;;;;;;11.17;10.10;;;;;;;24.48;53.29;97782.22;5112412;28;20237;-72
2022/07/24 04:28:30;;;;;;;10.67;9.77;;;;;;;24.51;53.10;97785.25;5112030;28;20246;-72
2022/07/24 04:30:56;;;;;;;11.30;10.20;;;;;;;24.54;53.33;97789.34;5112188;28;20264;-74
2022/07/24 04:33:21;;;;;;;14.13;10.03;;;;;;;24.55;53.26;97785.63;5111934;28;20247;-72
2022/07/24 04:35:47;;;;;;;11.00;9.50;;;;;;;24.58;53.32;97784.34;5112371;28;20246;-73
2022/07/24 04:38:12;;;;;;;13.27;10.40;;;;;;;24.61;53.23;97789.25;5104354;28;20196;-72
2022/07/24 04:40:38;;;;;;;9.77;8.83;;;;;;;24.61;53.33;97790.06;5098926;27;20296;-72
2022/07/24 04:43:04;;;;;;;13.63;9.93;;;;;;;24.61;53.40;97789.25;5113013;27;20176;-72
2022/07/24 04:45:29;;;;;;;11.97;10.77;;;;;;;24.62;53.42;97786.34;5100300;28;20205;-71
2022/07/24 04:47:54;;;;;;;10.83;9.90;;;;;;;24.56;53.38;97789.13;5101878;28;20189;-72
2022/07/24 04:50:20;;;;;;;11.30;10.30;;;;;;;24.57;53.40;97782.72;5105947;28;20533;-71
2022/07/24 04:52:45;;;;;;;11.70;9.50;;;;;;;24.61;53.29;97787.38;5104083;28;20200;-73
2022/07/24 04:55:12;;;;;;;10.17;9.33;;;;;;;24.67;53.20;97782.97;5101990;27;20254;-72
2022/07/24 04:57:38;;;;;;;12.13;10.93;;;;;;;24.72;53.18;97790.34;5102355;27;20300;-72
2022/07/24 05:00:07;;;;;;;10.23;9.33;;;;;;;24.75;52.97;97789.91;5110681;27;20549;-73
2022/07/24 05:02:33;;;;;;;10.40;9.40;;;;;;;24.77;53.42;97791.28;5107928;28;20944;-72
2022/07/24 05:05:01;;;;;;;10.00;9.10;;;;;;;24.82;53.54;97790.63;5107837;28;20423;-72
2022/07/24 05:07:27;;;;;;;11.13;10.10;;;;;;;24.87;53.51;97797.97;5102686;28;20691;-72
2022/07/24 05:09:52;;;;;;;10.23;9.03;;;;;;;24.87;53.25;97798.78;5104897;28;20425;-73
2022/07/24 05:12:18;;;;;;;11.10;10.10;;;;;;;24.93;53.56;97797.88;5110835;27;20643;-71
2022/07/24 05:14:43;;;;;;;13.83;9.80;;;;;;;24.99;53.40;97798.81;5107280;27;20241;-70
2022/07/24 05:17:09;;;;;;;11.10;10.00;;;;;;;25.04;52.92;97803.47;5107846;28;20534;-73
2022/07/24 05:19:34;;;;;;;10.83;9.83;;;;;;;25.08;52.60;97809.97;5098418;28;20209;-73
2022/07/24 05:22:00;;;;;;;10.30;9.30;;;;;;;25.12;52.91;97811.16;5108242;28;20254;-72
2022/07/24 05:24:25;;;;;;;11.03;9.77;;;;;;;25.20;52.80;97812.69;5104577;28;20187;-73
2022/07/24 05:26:51;;;;;;;11.47;10.37;;;;;;;25.23;52.69;97809.53;5104177;28;20964;-73
2022/07/24 05:29:17;;;;;;;10.27;9.27;;;;;;;25.29;52.78;97806.75;5106057;28;20230;-72
2022/07/24 05:31:42;;;;;;;10.57;8.90;;;;;;;25.38;52.31;97809.06;5104239;28;20780;-72
2022/07/24 05:34:08;;;;;;;11.23;9.53;;;;;;;25.46;52.36;97800.69;5103611;28;20615;-72
2022/07/24 05:36:34;;;;;;;11.50;10.40;;;;;;;25.54;52.45;97808.41;5098037;28;20209;-72
2022/07/24 05:38:59;;;;;;;10.93;8.87;;;;;;;25.63;51.92;97798.13;5087677;28;20644;-72
2022/07/24 05:41:24;;;;;;;10.47;9.57;;;;;;;25.73;51.76;97795.66;5065937;28;20291;-72
2022/07/24 05:43:50;;;;;;;10.67;9.23;;;;;;;25.82;50.88;97792.59;5109424;27;20692;-72
2022/07/24 05:46:15;;;;;;;11.63;10.47;;;;;;;25.94;50.88;97792.59;5099320;28;20258;-75
2022/07/24 05:48:41;;;;;;;11.00;9.63;;;;;;;26.02;50.30;97792.19;5101743;27;20185;-73
2022/07/24 05:51:06;;;;;;;11.07;9.97;;;;;;;26.09;50.23;97787.50;5106570;28;20188;-72
2022/07/24 05:53:32;;;;;;;12.40;10.40;;;;;;;26.10;49.44;97783.78;5099190;28;20231;-72
2022/07/24 05:55:57;;;;;;;11.23;10.13;;;;;;;26.13;49.26;97786.00;5105688;28;20205;-72
2022/07/24 05:58:23;;;;;;;10.43;9.37;;;;;;;26.20;49.00;97785.88;5110141;28;20888;-72
2022/07/24 06:00:48;;;;;;;10.97;9.80;;;;;;;26.27;49.05;97791.09;5107878;28;20286;-72
2022/07/24 06:03:14;;;;;;;9.80;8.90;;;;;;;26.36;49.20;97797.72;5109283;28;20177;-72
2022/07/24 06:05:39;;;;;;;10.47;9.37;;;;;;;26.46;48.82;97792.53;5110741;28;20250;-71
2022/07/24 06:08:05;;;;;;;10.17;9.17;;;;;;;26.50;48.38;97793.66;5112168;27;20189;-72
2022/07/24 06:10:31;;;;;;;11.43;9.70;;;;;;;26.58;48.08;97795.16;5111662;28;20294;-73
2022/07/24 06:12:57;;;;;;;8.70;7.97;;;;;;;26.70;48.55;97797.78;5111758;28;20183;-72
2022/07/24 06:15:23;;;;;;;12.17;9.57;;;;;;;26.80;47.87;97791.78;5109948;28;20458;-73
2022/07/24 06:17:49;;;;;;;11.07;8.70;;;;;;;26.90;47.73;97793.81;5090356;28;20423;-72
2022/07/24 06:20:16;;;;;;;13.53;8.47;;;;;;;27.07;47.76;97801.88;5109286;28;20227;-73
2022/07/24 06:22:45;;;;;;;10.00;8.93;;;;;;;27.21;47.61;97797.00;5111654;28;20268;-73
2022/07/24 06:25:11;;;;;;;10.47;9.37;;;;;;;27.26;45.88;97789.00;5111879;28;20544;-73
2022/07/24 06:27:43;;;;;;;9.97;9.00;;;;;;;27.33;45.50;97804.97;5111685;28;20422;-74
2022/07/24 06:30:21;;;;;;;9.70;8.63;;;;;;;27.47;45.97;97800.09;5110692;27;20842;-73
2022/07/24 06:32:47;;;;;;;10.57;9.50;;;;;;;27.64;45.72;97802.75;5110775;28;20438;-73
2022/07/24 06:35:12;;;;;;;8.93;8.03;;;;;;;27.72;45.44;97802.31;5107509;28;20471;-72
2022/07/24 06:37:38;;;;;;;9.40;8.60;;;;;;;27.83;45.12;97803.28;5123906;28;20887;-72
2022/07/24 06:40:04;;;;;;;9.63;8.20;;;;;;;27.91;44.85;97800.13;5112371;28;20232;-73
2022/07/24 06:42:30;;;;;;;10.07;8.53;;;;;;;28.01;44.11;97794.84;5102650;28;20535;-72
2022/07/24 06:44:55;;;;;;;10.00;9.00;;;;;;;28.11;43.74;97787.97;5110303;28;20423;-72
2022/07/24 06:47:21;;;;;;;8.73;7.60;;;;;;;28.20;44.01;97797.25;5109452;28;20188;-72
2022/07/24 06:49:47;;;;;;;12.17;7.93;;;;;;;28.25;43.32;97791.91;5093152;28;20181;-72
2022/07/24 06:52:12;;;;;;;9.70;7.90;;;;;;;28.36;43.19;97798.25;5096437;28;20227;-72
2022/07/24 06:54:37;;;;;;;7.87;7.17;;;;;;;28.45;43.08;97790.50;5102421;28;20204;-72
2022/07/24 06:57:03;;;;;;;10.90;9.83;;;;;;;28.60;43.00;97779.88;5098628;28;20200;-72
2022/07/24 06:59:29;;;;;;;9.60;8.60;;;;;;;28.75;42.66;97789.19;5091692;28;20603;-73
2022/07/24 07:01:54;;;;;;;11.37;7.57;;;;;;;28.90;42.82;97789.31;5093526;28;20184;-73
2022/07/24 07:04:20;;;;;;;10.60;8.03;;;;;;;29.03;42.65;97788.09;5080917;28;20268;-72
2022/07/24 07:06:45;;;;;;;8.90;8.00;;;;;;;29.15;41.99;97785.19;5102598;28;20228;-71
2022/07/24 07:09:11;;;;;;;8.80;7.90;;;;;;;29.26;41.57;97791.47;5100106;28;20200;-72
2022/07/24 07:11:37;;;;;;;8.17;7.43;;;;;;;29.37;41.62;97782.41;5108032;28;20185;-73
2022/07/24 07:14:02;;;;;;;10.43;7.50;;;;;;;29.50;41.49;97774.91;5100305;28;20182;-72
2022/07/24 07:16:28;;;;;;;8.17;7.37;;;;;;;29.59;40.69;97784.13;5105128;28;20226;-70
2022/07/24 07:18:53;;;;;;;9.93;7.70;;;;;;;29.70;39.94;97779.59;5104012;28;20640;-72
2022/07/24 07:21:19;;;;;;;7.33;6.73;;;;;;;29.81;39.75;97786.66;5097950;28;20197;-72
2022/07/24 07:23:44;;;;;;;11.27;7.97;;;;;;;29.83;37.88;97781.81;5106905;28;20671;-71
2022/07/24 07:26:10;;;;;;;7.30;6.60;;;;;;;29.88;38.31;97781.81;5098542;28;20543;-70
2022/07/24 07:28:35;;;;;;;7.43;6.80;;;;;;;30.00;38.24;97781.63;5099517;28;20276;-72
2022/07/24 07:31:01;;;;;;;7.07;6.47;;;;;;;29.78;36.53;97786.38;5100255;28;20211;-73
2022/07/24 07:33:26;;;;;;;7.93;6.80;;;;;;;29.72;37.21;97782.84;5101045;28;20193;-74
2022/07/24 07:35:52;;;;;;;7.10;6.50;;;;;;;29.88;37.63;97787.22;5084485;28;20248;-72
2022/07/24 07:38:18;;;;;;;10.40;6.30;;;;;;;30.05;38.02;97786.22;5100226;28;20178;-71
2022/07/24 07:40:44;;;;;;;7.27;6.60;;;;;;;30.19;37.11;97786.53;5108194;28;20468;-73
2022/07/24 07:43:09;;;;;;;7.50;6.37;;;;;;;30.34;36.52;97793.88;5111091;28;20184;-73
2022/07/24 07:45:34;;;;;;;7.60;6.80;;;;;;;30.43;36.60;97786.88;5111570;28;20218;-73
2022/07/24 07:48:00;;;;;;;6.73;6.13;;;;;;;30.59;36.70;97784.22;5112441;28;20185;-73
2022/07/24 07:50:26;;;;;;;8.53;6.73;;;;;;;30.64;36.67;97793.16;5104658;28;20196;-73
2022/07/24 07:52:51;;;;;;;8.27;6.90;;;;;;;30.72;36.36;97790.97;5112976;28;20866;-74
2022/07/24 07:55:17;;;;;;;14.77;6.63;;;;;;;30.87;36.49;97785.56;5105698;28;20248;-74
2022/07/24 07:57:43;;;;;;;7.77;6.40;;;;;;;30.98;35.96;97794.50;5113564;28;20226;-73
2022/07/24 08:00:10;;;;;;;9.53;6.77;;;;;;;31.05;35.34;97792.34;5113583;28;20215;-74
2022/07/24 08:02:35;;;;;;;6.33;5.73;;;;;;;31.13;35.74;97792.91;5110175;28;20424;-72
2022/07/24 08:05:01;;;;;;;8.03;6.60;;;;;;;31.27;35.71;97798.56;5110254;28;21068;-72
2022/07/24 08:07:26;;;;;;;11.03;6.53;;;;;;;31.44;35.19;97793.66;5113023;28;20204;-73
2022/07/24 08:09:52;;;;;;;6.57;5.97;;;;;;;31.56;34.98;97793.34;5113645;28;20182;-72
2022/07/24 08:12:17;;;;;;;12.83;6.70;;;;;;;31.62;34.39;97786.84;5113577;27;20536;-72
2022/07/24 08:14:43;;;;;;;6.50;6.00;;;;;;;31.73;34.56;97781.41;5113246;28;20188;-73
2022/07/24 08:17:08;;;;;;;7.13;6.47;;;;;;;31.77;34.68;97787.88;5111860;28;20200;-73
2022/07/24 08:19:34;;;;;;;7.90;6.33;;;;;;;31.88;34.48;97786.78;5112833;28;20202;-73
2022/07/24 08:21:59;;;;;;;7.13;6.43;;;;;;;31.98;34.60;97786.72;5111330;28;20209;-73
2022/07/24 08:24:25;;;;;;;9.50;6.37;;;;;;;32.07;34.43;97784.22;5113169;28;20301;-74
2022/07/24 08:26:50;;;;;;;15.60;6.30;;;;;;;32.20;33.87;97782.81;5115986;27;20205;-72
2022/07/24 08:29:16;;;;;;;8.37;6.80;;;;;;;32.27;33.93;97775.19;5114350;27;20185;-73
2022/07/24 08:31:42;;;;;;;9.67;6.73;;;;;;;32.39;33.55;97768.63;5112685;28;20189;-72
2022/07/24 08:34:08;;;;;;;7.17;6.43;;;;;;;32.44;33.48;97774.84;5112676;28;20480;-74
2022/07/24 08:36:33;;;;;;;8.33;6.40;;;;;;;32.49;33.21;97771.28;5103428;28;20202;-73
2022/07/24 08:38:58;;;;;;;8.97;6.90;;;;;;;32.57;33.04;97767.16;5112419;28;20190;-73
2022/07/24 08:41:24;;;;;;;7.07;6.47;;;;;;;32.71;33.22;97764.59;5100534;28;20189;-72
2022/07/24 08:43:50;;;;;;;7.40;6.80;;;;;;;32.86;32.47;97767.22;5085041;28;20212;-72
2022/07/24 08:46:16;;;;;;;8.00;6.80;;;;;;;32.95;32.12;97766.59;5105981;28;20215;-72
2022/07/24 08:48:45;;;;;;;7.20;6.33;;;;;;;33.01;31.82;97770.91;5097595;28;20185;-71
2022/07/24 08:51:17;;;;;;;8.00;7.20;;;;;;;33.10;31.88;97761.03;5103171;28;20268;-72
2022/07/24 08:53:43;;;;;;;13.50;6.20;;;;;;;33.11;30.97;97757.22;5093972;28;20432;-72
2022/07/24 08:56:10;;;;;;;7.47;6.40;;;;;;;33.08;31.58;97757.78;5111266;28;21041;-72
2022/07/24 08:58:40;;;;;;;7.60;6.17;;;;;;;33.06;31.78;97762.69;5110570;27;20434;-73
2022/07/24 09:01:06;;;;;;;9.40;5.93;;;;;;;33.09;30.95;97765.63;5101814;28;20546;-72
2022/07/24 09:03:43;;;;;;;6.80;5.93;;;;;;;33.00;30.85;97763.84;5086317;28;20924;-72
2022/07/24 09:06:10;;;;;;;10.40;6.10;;;;;;;33.21;31.00;97761.72;5087072;28;20447;-73
2022/07/24 09:08:37;;;;;;;6.77;6.07;;;;;;;33.41;30.86;97760.72;5112291;28;20419;-73
2022/07/24 09:11:03;;;;;;;7.60;6.30;;;;;;;33.47;31.22;97759.59;5103178;28;20431;-72
2022/07/24 09:14:29;;;;;;;6.90;6.20;;;;;;;33.71;31.04;97764.19;5105985;28;20980;-71
2022/07/24 09:16:24;;;;;;;7.07;6.00;;;;;;;33.82;30.19;97760.25;5078260;28;20450;-72
2022/07/24 09:19:03;;;;;;;6.93;6.33;;;;;;;33.94;30.38;97759.88;5106264;28;20479;-72
2022/07/24 09:21:32;;;;;;;6.30;5.80;;;;;;;34.10;30.04;97762.34;5104679;27;20422;-72
2022/07/24 09:24:02;;;;;;;7.10;6.40;;;;;;;34.21;29.78;97763.03;5110339;27;20426;-72
2022/07/24 09:26:51;;;;;;;6.07;5.37;;;;;;;34.08;29.57;97761.88;5109291;28;20468;-72
2022/07/24 09:29:18;;;;;;;5.83;5.33;;;;;;;33.92;29.85;97767.50;5110588;28;20438;-73
2022/07/24 09:32:00;;;;;;;8.10;5.97;;;;;;;34.04;29.67;97761.63;5105342;28;20458;-72
2022/07/24 09:34:27;;;;;;;6.43;5.80;;;;;;;34.22;30.11;97756.50;5108163;28;20438;-72
2022/07/24 09:37:01;;;;;;;5.67;5.17;;;;;;;34.17;30.01;97762.00;5103109;28;20453;-72
2022/07/24 09:39:28;;;;;;;7.10;5.20;;;;;;;34.10;29.36;97760.47;5083710;28;20464;-72
2022/07/24 09:41:54;;;;;;;6.37;5.77;;;;;;;33.80;29.99;97761.66;5101871;28;20921;-72
2022/07/24 09:44:20;;;;;;;7.93;6.67;;;;;;;33.61;30.20;97767.03;5105222;28;20423;-73
2022/07/24 09:46:48;;;;;;;7.07;6.47;;;;;;;33.40;30.35;97761.81;5104112;27;20817;-73
2022/07/24 09:49:20;;;;;;;7.10;6.37;;;;;;;33.14;30.24;97756.66;5105654;28;20188;-73
2022/07/24 09:52:07;;;;;;;9.83;6.73;;;;;;;32.92;30.41;97749.00;5093506;28;20428;-70
2022/07/24 09:54:35;;;;;;;7.30;6.70;;;;;;;32.74;30.91;97747.75;5095506;28;20873;-72
2022/07/24 09:57:19;;;;;;;7.07;6.47;;;;;;;32.53;31.53;97763.38;5109679;28;20476;-72
2022/07/24 09:59:57;;;;;;;9.63;6.90;;;;;;;32.18;32.48;97763.31;5105155;27;20469;-71
2022/07/24 10:02:27;;;;;;;7.73;7.03;;;;;;;32.11;32.09;97754.69;5111059;28;20801;-72
2022/07/24 10:04:53;;;;;;;6.40;5.90;;;;;;;32.06;32.62;97754.72;5110890;28;20442;-71
2022/07/24 10:07:21;;;;;;;7.00;6.33;;;;;;;32.38;32.73;97750.75;5110317;28;20438;-72
2022/07/24 10:09:52;;;;;;;8.23;7.63;;;;;;;32.67;31.85;97741.84;5110270;28;20487;-70
2022/07/24 10:12:20;;;;;;;7.90;7.23;;;;;;;33.03;30.90;97738.81;5116338;27;20437;-71
2022/07/24 10:14:47;;;;;;;7.17;6.47;;;;;;;33.39;30.34;97744.72;5104368;28;20505;-71
2022/07/24 10:17:14;;;;;;;7.60;6.80;;;;;;;33.75;30.77;97743.50;5110695;28;20453;-72
2022/07/24 10:19:46;;;;;;;6.93;6.40;;;;;;;34.08;30.41;97735.47;5110645;28;20533;-72
2022/07/24 10:22:22;;;;;;;8.53;7.43;;;;;;;34.40;29.41;97727.66;5112823;28;20509;-73
2022/07/24 10:25:00;;;;;;;6.43;5.83;;;;;;;34.67;28.22;97735.13;5110158;28;20422;-72
2022/07/24 10:27:28;;;;;;;6.70;5.37;;;;;;;34.92;28.03;97733.09;5091841;28;20420;-72
2022/07/24 10:29:55;;;;;;;7.33;5.70;;;;;;;34.97;27.70;97729.50;5113910;28;20469;-72
2022/07/24 10:32:23;;;;;;;6.80;5.87;;;;;;;35.06;28.12;97731.22;5113262;28;20441;-73
2022/07/24 10:35:06;;;;;;;7.03;6.17;;;;;;;35.23;27.86;97732.56;5109986;28;20429;-73
2022/07/24 10:37:43;;;;;;;6.20;5.70;;;;;;;35.39;26.92;97729.53;5100229;28;20515;-73
2022/07/24 10:40:14;;;;;;;10.63;5.43;;;;;;;35.55;26.46;97717.22;5103178;28;20800;-72
2022/07/24 10:43:05;;;;;;;5.50;5.03;;;;;;;35.76;26.77;97722.25;5111624;28;20420;-72
2022/07/24 10:45:31;;;;;;;5.97;5.37;;;;;;;35.89;26.14;97723.34;5102986;28;20430;-72
2022/07/24 10:47:57;;;;;;;5.90;5.40;;;;;;;35.98;25.89;97714.16;5103093;28;20429;-72
2022/07/24 10:50:23;;;;;;;6.93;5.50;;;;;;;36.13;26.29;97723.09;5109834;28;20502;-73
2022/07/24 10:52:49;;;;;;;5.93;5.43;;;;;;;36.31;26.14;97715.03;5101464;28;20186;-72
2022/07/24 10:55:23;;;;;;;6.00;5.50;;;;;;;35.94;25.29;97717.81;5100225;28;21004;-72
2022/07/24 10:57:55;;;;;;;6.07;5.50;;;;;;;35.78;25.58;97717.31;5104847;28;20226;-71
2022/07/24 11:00:30;;;;;;;5.50;5.10;;;;;;;36.01;26.11;97722.84;5122003;28;20819;-73
2022/07/24 11:03:02;;;;;;;5.40;4.90;;;;;;;36.11;25.82;97717.94;5106374;28;20418;-73
2022/07/24 11:05:35;;;;;;;6.00;5.50;;;;;;;36.31;25.40;97709.59;5106392;28;20944;-72
2022/07/24 11:08:16;;;;;;;6.40;5.70;;;;;;;36.46;25.39;97706.53;5110245;28;20452;-72
2022/07/24 11:10:51;;;;;;;7.70;6.90;;;;;;;36.67;26.12;97697.84;5100807;28;20410;-71
2022/07/24 11:13:31;;;;;;;6.87;6.27;;;;;;;36.55;26.30;97703.88;5101938;28;20426;-71
2022/07/24 11:16:24;;;;;;;10.07;9.07;;;;;;;36.63;26.44;97699.56;5102997;28;20453;-71
2022/07/24 11:18:50;;;;;;;8.27;7.33;;;;;;;36.46;26.28;97698.34;5097181;27;20435;-73
2022/07/24 11:21:28;;;;;;;7.03;6.30;;;;;;;36.24;26.66;97697.22;5108048;28;20525;-71
2022/07/24 11:24:27;;;;;;;6.77;6.27;;;;;;;35.95;26.91;97695.69;5112712;27;20212;-75
2022/07/24 11:27:16;;;;;;;10.73;6.47;;;;;;;35.80;27.34;97698.72;5106417;28;20531;-72